createdAt,value
2023-04-30T00:02:00.519Z,10.95
2023-04-30T00:06:03.443Z,10.98
2023-04-30T00:10:05.297Z,10.94
2023-04-30T00:14:06.744Z,10.95
2023-04-30T00:18:08.223Z,10.99
2023-04-30T00:22:11.011Z,11.01
2023-04-30T00:26:12.399Z,10.99
2023-04-30T00:30:13.745Z,10.89
2023-04-30T00:34:15.108Z,10.86
2023-04-30T00:38:17.856Z,10.87
2023-04-30T00:42:19.223Z,10.85
2023-04-30T00:46:20.622Z,10.84
2023-04-30T00:50:22.416Z,10.89
2023-04-30T00:54:25.280Z,10.82
2023-04-30T00:58:26.686Z,10.83
2023-04-30T01:02:29.108Z,10.82
2023-04-30T01:06:31.003Z,10.71
2023-04-30T01:10:41.137Z,10.72
2023-04-30T01:14:48.160Z,10.72
2023-04-30T01:18:52.772Z,10.66
2023-04-30T01:22:55.503Z,10.67
2023-04-30T01:27:13.838Z,10.68
2023-04-30T01:31:18.473Z,10.91
2023-04-30T01:35:20.427Z,10.68
2023-04-30T01:39:31.537Z,10.69
2023-04-30T01:43:38.525Z,10.59
2023-04-30T01:47:46.227Z,10.61
2023-04-30T01:51:51.291Z,10.60
2023-04-30T01:55:57.378Z,10.58
2023-04-30T01:59:58.783Z,10.55
2023-04-30T02:04:01.548Z,10.65
2023-04-30T02:08:03.040Z,10.58
2023-04-30T02:12:04.398Z,10.54
2023-04-30T02:16:06.210Z,10.53
2023-04-30T02:20:09.505Z,10.55
2023-04-30T02:24:10.857Z,10.55
2023-04-30T02:28:12.193Z,10.58
2023-04-30T02:32:13.578Z,10.60
2023-04-30T02:36:16.257Z,10.58
2023-04-30T02:40:17.623Z,10.53
2023-04-30T02:44:18.971Z,10.50
2023-04-30T02:48:20.392Z,10.53
2023-04-30T02:52:23.086Z,10.54
2023-04-30T02:56:24.428Z,10.45
2023-04-30T03:00:25.797Z,10.42
2023-04-30T03:04:27.188Z,10.41
2023-04-30T03:08:29.897Z,10.40
2023-04-30T03:12:31.240Z,10.40
2023-04-30T03:16:32.614Z,10.43
2023-04-30T03:20:33.973Z,10.44
2023-04-30T03:24:36.664Z,10.42
2023-04-30T03:28:38.011Z,10.43
2023-04-30T03:32:39.418Z,10.23
2023-04-30T03:36:40.772Z,10.14
2023-04-30T03:40:43.473Z,10.14
2023-04-30T03:44:44.804Z,10.19
2023-04-30T03:48:46.147Z,10.13
2023-04-30T03:52:47.474Z,10.09
2023-04-30T03:56:50.472Z,10.14
2023-04-30T04:00:52.353Z,10.11
2023-04-30T04:04:53.752Z,10.08
2023-04-30T04:08:55.131Z,10.09
2023-04-30T04:12:57.873Z,10.00
2023-04-30T04:16:59.288Z,9.98
2023-04-30T04:21:00.649Z,10.02
2023-04-30T04:25:01.990Z,9.96
2023-04-30T04:29:04.738Z,10.12
2023-04-30T04:33:06.140Z,10.10
2023-04-30T04:37:07.615Z,10.14
2023-04-30T04:41:08.946Z,10.30
2023-04-30T04:45:11.797Z,10.37
2023-04-30T04:49:13.146Z,10.42
2023-04-30T04:53:14.493Z,10.59
2023-04-30T04:57:15.970Z,10.69
2023-04-30T05:01:18.860Z,10.86
2023-04-30T05:05:20.252Z,10.99
2023-04-30T05:09:21.597Z,11.20
2023-04-30T05:13:23.123Z,11.43
2023-04-30T05:17:25.904Z,11.77
2023-04-30T05:21:27.279Z,11.97
2023-04-30T05:25:28.634Z,12.09
2023-04-30T05:29:29.989Z,12.21
2023-04-30T05:33:32.664Z,12.33
2023-04-30T05:37:34.037Z,12.37
2023-04-30T05:41:35.362Z,12.52
2023-04-30T05:45:36.738Z,12.95
2023-04-30T05:49:39.427Z,13.63
2023-04-30T05:53:40.743Z,13.19
2023-04-30T05:57:42.137Z,13.78
2023-04-30T06:01:44.002Z,14.13
2023-04-30T06:05:47.164Z,14.31
2023-04-30T06:09:48.620Z,15.70
2023-04-30T06:13:49.950Z,16.85
2023-04-30T06:17:51.420Z,16.84
2023-04-30T06:21:54.184Z,16.66
2023-04-30T06:25:55.525Z,16.83
2023-04-30T06:29:57.001Z,17.75
2023-04-30T06:33:58.396Z,17.29
2023-04-30T06:38:01.079Z,18.48
2023-04-30T06:42:02.404Z,19.30
2023-04-30T06:46:03.843Z,20.21
2023-04-30T06:50:05.746Z,21.15
2023-04-30T06:54:08.439Z,21.00
2023-04-30T06:58:09.790Z,20.24
2023-04-30T07:02:11.213Z,19.32
2023-04-30T07:06:12.675Z,18.58
2023-04-30T07:10:15.387Z,17.06
2023-04-30T07:14:16.708Z,16.82
2023-04-30T07:18:18.046Z,16.79
2023-04-30T07:22:19.416Z,16.98
2023-04-30T07:26:22.152Z,16.67
2023-04-30T07:30:25.220Z,16.75
2023-04-30T07:34:26.747Z,16.93
2023-04-30T07:38:28.157Z,16.49
2023-04-30T07:42:30.873Z,16.31
2023-04-30T07:46:32.358Z,16.48
2023-04-30T07:50:33.930Z,16.62
2023-04-30T07:54:35.455Z,16.70
2023-04-30T07:58:38.197Z,16.84
2023-04-30T08:02:39.601Z,17.06
2023-04-30T08:06:41.141Z,17.33
2023-04-30T08:10:42.502Z,17.42
2023-04-30T08:14:45.200Z,17.18
2023-04-30T08:18:46.534Z,17.40
2023-04-30T08:22:47.938Z,17.32
2023-04-30T08:26:49.283Z,17.35
2023-04-30T08:30:52.013Z,17.37
2023-04-30T08:34:54.070Z,17.36
2023-04-30T08:38:55.686Z,16.86
2023-04-30T08:43:05.731Z,17.35
2023-04-30T08:47:10.365Z,18.19
2023-04-30T08:51:11.749Z,18.47
2023-04-30T08:55:13.128Z,18.57
2023-04-30T08:59:14.484Z,18.13
2023-04-30T09:03:17.956Z,18.43
2023-04-30T09:07:20.636Z,18.54
2023-04-30T09:11:23.089Z,18.27
2023-04-30T09:15:24.489Z,18.36
2023-04-30T09:19:27.864Z,18.10
2023-04-30T09:23:29.479Z,18.26
2023-04-30T09:27:30.853Z,18.36
2023-04-30T09:31:32.237Z,18.14
2023-04-30T09:35:36.891Z,17.77
2023-04-30T09:39:48.344Z,17.73
2023-04-30T09:43:49.713Z,17.50
2023-04-30T09:47:54.052Z,17.08
2023-04-30T09:51:59.052Z,16.88
2023-04-30T09:56:02.752Z,17.21
2023-04-30T10:00:04.596Z,17.35
2023-04-30T10:04:06.132Z,17.16
2023-04-30T10:08:12.765Z,17.29
2023-04-30T10:12:15.257Z,17.30
2023-04-30T10:16:21.038Z,17.01
2023-04-30T10:20:23.382Z,16.99
2023-04-30T10:24:26.893Z,17.04
2023-04-30T10:28:28.773Z,16.80
2023-04-30T10:32:45.259Z,16.80
2023-04-30T10:36:47.929Z,17.26
2023-04-30T10:40:50.725Z,17.26
2023-04-30T10:44:52.106Z,17.35
2023-04-30T10:48:53.717Z,17.50
2023-04-30T10:53:01.608Z,17.60
2023-04-30T10:57:10.893Z,17.73
2023-04-30T11:01:13.205Z,17.65
2023-04-30T11:05:15.336Z,17.48
2023-04-30T11:09:16.830Z,17.33
2023-04-30T11:13:19.566Z,17.49
2023-04-30T11:17:22.307Z,17.45
2023-04-30T11:21:24.354Z,17.86
2023-04-30T11:25:25.711Z,18.04
2023-04-30T11:29:28.960Z,18.18
2023-04-30T11:33:31.054Z,18.22
2023-04-30T11:37:33.105Z,18.34
2023-04-30T11:41:40.345Z,18.48
2023-04-30T11:45:43.074Z,18.51
2023-04-30T11:49:44.419Z,18.59
2023-04-30T11:53:46.131Z,18.48
2023-04-30T11:57:48.155Z,18.88
2023-04-30T12:01:50.955Z,18.94
2023-04-30T12:05:52.448Z,18.89
2023-04-30T12:09:54.380Z,18.63
2023-04-30T12:13:57.788Z,18.28
2023-04-30T12:18:10.464Z,18.46
2023-04-30T12:22:11.880Z,18.51
2023-04-30T12:26:13.318Z,18.06
2023-04-30T12:30:15.062Z,17.71
2023-04-30T12:34:17.790Z,18.06
2023-04-30T12:38:19.159Z,18.12
2023-04-30T12:42:20.562Z,18.13
2023-04-30T12:46:26.211Z,18.41
2023-04-30T12:50:29.094Z,18.60
2023-04-30T12:54:31.063Z,18.89
2023-04-30T12:58:32.415Z,18.95
2023-04-30T13:02:33.962Z,19.01
2023-04-30T13:06:36.763Z,19.06
2023-04-30T13:10:38.185Z,19.04
2023-04-30T13:14:39.544Z,18.63
2023-04-30T13:18:40.872Z,18.66
2023-04-30T13:22:43.586Z,18.46
2023-04-30T13:26:44.920Z,18.10
2023-04-30T13:30:46.254Z,17.98
2023-04-30T13:34:47.604Z,18.41
2023-04-30T13:38:50.283Z,18.86
2023-04-30T13:42:51.635Z,18.93
2023-04-30T13:46:53.023Z,18.78
2023-04-30T13:50:54.446Z,18.63
2023-04-30T13:54:57.217Z,18.81
2023-04-30T13:58:58.558Z,18.95
2023-04-30T14:03:00.056Z,18.64
2023-04-30T14:07:01.666Z,18.29
2023-04-30T14:11:04.416Z,17.82
2023-04-30T14:15:06.092Z,17.90
2023-04-30T14:19:07.434Z,18.04
2023-04-30T14:23:10.594Z,18.52
2023-04-30T14:27:13.312Z,19.04
2023-04-30T14:31:14.709Z,19.13
2023-04-30T14:35:16.212Z,19.72
2023-04-30T14:39:17.551Z,19.92
2023-04-30T14:43:20.287Z,19.62
2023-04-30T14:47:21.705Z,18.91
2023-04-30T14:51:23.103Z,18.43
2023-04-30T14:55:24.533Z,18.28
2023-04-30T14:59:27.320Z,18.63
2023-04-30T15:03:28.686Z,19.02
2023-04-30T15:07:30.082Z,19.17
2023-04-30T15:11:31.435Z,19.28
2023-04-30T15:15:34.252Z,19.36
2023-04-30T15:19:35.616Z,19.07
2023-04-30T15:23:37.088Z,18.91
2023-04-30T15:27:38.447Z,19.06
2023-04-30T15:31:41.213Z,19.21
2023-04-30T15:35:42.606Z,19.18
2023-04-30T15:39:43.944Z,19.15
2023-04-30T15:43:45.307Z,19.21
2023-04-30T15:47:48.078Z,19.12
2023-04-30T15:51:50.768Z,19.01
2023-04-30T15:55:52.117Z,19.04
2023-04-30T15:59:53.638Z,18.93
2023-04-30T16:03:56.703Z,18.91
2023-04-30T16:07:58.441Z,18.89
2023-04-30T16:11:59.840Z,18.88
2023-04-30T16:16:01.260Z,18.65
2023-04-30T16:20:04.320Z,18.47
2023-04-30T16:24:05.747Z,18.34
2023-04-30T16:28:07.093Z,18.38
2023-04-30T16:32:08.561Z,18.14
2023-04-30T16:36:11.339Z,18.28
2023-04-30T16:40:13.032Z,18.35
2023-04-30T16:44:14.443Z,18.22
2023-04-30T16:48:15.906Z,18.19
2023-04-30T16:52:18.669Z,18.23
2023-04-30T16:56:20.131Z,18.05
2023-04-30T17:00:21.581Z,17.97
2023-04-30T17:04:22.964Z,17.82
2023-04-30T17:08:25.765Z,17.86
2023-04-30T17:12:27.208Z,17.90
2023-04-30T17:16:28.657Z,17.92
2023-04-30T17:20:30.044Z,17.97
2023-04-30T17:24:32.770Z,17.88
2023-04-30T17:28:34.121Z,17.72
2023-04-30T17:32:35.565Z,17.48
2023-04-30T17:36:36.964Z,17.13
2023-04-30T17:40:39.655Z,16.75
2023-04-30T17:44:41.027Z,16.56
2023-04-30T17:48:42.409Z,16.33
2023-04-30T17:52:43.810Z,16.12
2023-04-30T17:56:46.548Z,15.93
2023-04-30T18:00:47.912Z,15.59
2023-04-30T18:04:49.381Z,15.23
2023-04-30T18:08:50.725Z,14.97
2023-04-30T18:12:53.796Z,14.76
2023-04-30T18:16:55.268Z,14.39
2023-04-30T18:20:56.636Z,14.20
2023-04-30T18:24:57.983Z,13.99
2023-04-30T18:29:00.718Z,13.80
2023-04-30T18:33:02.100Z,13.49
2023-04-30T18:37:03.507Z,13.38
2023-04-30T18:41:05.053Z,13.17
2023-04-30T18:45:08.481Z,13.01
2023-04-30T18:49:09.867Z,12.85
2023-04-30T18:53:11.228Z,12.69
2023-04-30T18:57:12.580Z,12.58
2023-04-30T19:01:15.547Z,12.41
2023-04-30T19:05:17.176Z,12.27
2023-04-30T19:09:18.516Z,12.10
2023-04-30T19:13:19.892Z,12.03
2023-04-30T19:17:22.736Z,11.78
2023-04-30T19:21:24.204Z,11.61
2023-04-30T19:25:25.608Z,11.47
2023-04-30T19:29:29.092Z,11.55
2023-04-30T19:33:32.396Z,11.43
2023-04-30T19:37:33.810Z,11.34
2023-04-30T19:41:35.278Z,11.18
2023-04-30T19:45:36.626Z,11.10
2023-04-30T19:49:39.329Z,10.96
2023-04-30T19:53:40.705Z,10.91
2023-04-30T19:57:42.057Z,10.80
2023-04-30T20:01:43.408Z,10.78
2023-04-30T20:05:46.165Z,10.70
2023-04-30T20:09:47.518Z,10.56
2023-04-30T20:13:48.887Z,10.61
2023-04-30T20:17:50.527Z,10.45
2023-04-30T20:21:53.413Z,10.41
2023-04-30T20:25:54.985Z,10.33
2023-04-30T20:29:56.857Z,10.28
2023-04-30T20:33:58.491Z,10.23
2023-04-30T20:38:02.616Z,10.23
2023-04-30T20:42:04.172Z,10.19
2023-04-30T20:46:05.530Z,10.13
2023-04-30T20:50:07.470Z,9.96
2023-04-30T20:54:10.196Z,9.90
2023-04-30T20:58:11.574Z,9.94
2023-04-30T21:02:12.996Z,9.72
2023-04-30T21:06:14.455Z,9.54
2023-04-30T21:10:17.322Z,9.45
2023-04-30T21:14:18.692Z,9.61
2023-04-30T21:18:20.068Z,9.41
2023-04-30T21:22:21.435Z,9.43
2023-04-30T21:26:24.199Z,9.40
2023-04-30T21:30:25.985Z,9.40
2023-04-30T21:34:29.677Z,9.36
2023-04-30T21:38:31.081Z,9.34
2023-04-30T21:42:33.828Z,9.35
2023-04-30T21:46:35.225Z,9.33
2023-04-30T21:50:36.605Z,9.24
2023-04-30T21:54:37.968Z,9.32
2023-04-30T21:58:40.663Z,9.22
2023-04-30T22:02:42.324Z,9.26
2023-04-30T22:06:43.832Z,9.20
2023-04-30T22:10:45.232Z,9.19
2023-04-30T22:14:48.008Z,9.22
2023-04-30T22:18:49.344Z,9.29
2023-04-30T22:22:50.705Z,9.29
2023-04-30T22:26:52.053Z,9.36
2023-04-30T22:30:58.649Z,9.31
2023-04-30T22:35:00.009Z,9.37
2023-04-30T22:39:01.342Z,9.39
2023-04-30T22:43:02.764Z,9.35
2023-04-30T22:47:05.658Z,9.35
2023-04-30T22:51:07.200Z,9.31
2023-04-30T22:55:08.814Z,9.30
2023-04-30T22:59:10.157Z,9.35
2023-04-30T23:03:13.019Z,9.47
2023-04-30T23:07:14.563Z,9.49
2023-04-30T23:11:15.976Z,9.42
2023-04-30T23:15:17.445Z,9.38
2023-04-30T23:19:20.164Z,9.46
2023-04-30T23:23:21.515Z,9.59
2023-04-30T23:27:22.900Z,9.53
2023-04-30T23:31:24.344Z,9.42
2023-04-30T23:35:27.077Z,9.54
2023-04-30T23:39:28.461Z,9.58
2023-04-30T23:43:30.306Z,9.62
2023-04-30T23:47:32.997Z,9.65
2023-04-30T23:51:35.790Z,9.61
2023-04-30T23:55:40.357Z,9.55
2023-04-30T23:59:41.693Z,9.48
